createdAt,value
2019-01-21T00:00:36.394Z,100714.73
2019-01-21T00:04:43.963Z,100715.41
2019-01-21T00:08:51.021Z,100712.10
2019-01-21T00:12:58.258Z,100715.02
2019-01-21T00:17:05.535Z,100719.83
2019-01-21T00:21:12.921Z,100722.38
2019-01-21T00:25:20.032Z,100724.02
2019-01-21T00:29:27.375Z,100719.97
2019-01-21T00:33:34.453Z,100728.18
2019-01-21T00:37:41.670Z,100725.95
2019-01-21T00:41:48.662Z,100720.72
2019-01-21T00:45:55.753Z,100725.56
2019-01-21T00:50:02.744Z,100729.94
2019-01-21T00:54:11.058Z,100731.23
2019-01-21T00:58:18.134Z,100733.98
2019-01-21T01:02:25.176Z,100742.92
2019-01-21T01:06:32.131Z,100741.37
2019-01-21T01:10:39.423Z,100748.19
2019-01-21T01:14:46.927Z,100747.83
2019-01-21T01:18:54.019Z,100746.60
2019-01-21T01:23:01.177Z,100753.22
2019-01-21T01:27:10.520Z,100754.48
2019-01-21T01:31:17.643Z,100754.57
2019-01-21T01:35:24.786Z,100754.23
2019-01-21T01:39:31.882Z,100753.25
2019-01-21T01:43:38.855Z,100755.89
2019-01-21T01:47:45.921Z,100754.23
2019-01-21T01:51:55.788Z,100757.92
2019-01-21T01:56:05.059Z,100755.56
2019-01-21T02:00:15.474Z,100760.93
2019-01-21T02:04:22.508Z,100758.44
2019-01-21T02:08:32.598Z,100760.19
2019-01-21T02:12:41.447Z,100763.25
2019-01-21T02:16:48.558Z,100761.42
2019-01-21T02:20:58.771Z,100761.84
2019-01-21T02:25:07.809Z,100764.98
2019-01-21T02:29:58.084Z,100751.78
2019-01-21T02:34:55.541Z,100754.83
2019-01-21T02:39:57.595Z,100756.59
2019-01-21T02:45:04.156Z,100762.19
2019-01-21T02:50:08.716Z,100759.61
2019-01-21T02:54:54.908Z,100756.73
2019-01-21T02:59:33.515Z,100764.95
2019-01-21T03:04:24.850Z,100758.11
2019-01-21T03:09:17.201Z,100755.98
2019-01-21T03:14:29.246Z,100757.08
2019-01-21T03:19:57.255Z,100754.37
2019-01-21T03:25:18.973Z,100750.62
2019-01-21T03:30:07.566Z,100748.93
2019-01-21T03:34:59.277Z,100753.77
2019-01-21T03:40:07.842Z,100745.92
2019-01-21T03:45:29.416Z,100750.44
2019-01-21T03:50:18.836Z,100750.65
2019-01-21T03:54:55.628Z,100754.77
2019-01-21T04:00:06.169Z,100757.25
2019-01-21T04:05:06.211Z,100759.08
2019-01-21T04:10:18.380Z,100759.59
2019-01-21T04:15:22.763Z,100766.14
2019-01-21T04:20:26.537Z,100769.33
2019-01-21T04:25:31.225Z,100771.56
2019-01-21T04:30:32.729Z,100771.97
2019-01-21T04:36:06.805Z,100775.45
2019-01-21T04:40:59.104Z,100771.95
2019-01-21T04:45:54.517Z,100771.97
2019-01-21T04:51:34.739Z,100780.97
2019-01-21T04:56:11.753Z,100776.25
2019-01-21T05:01:04.496Z,100779.86
2019-01-21T05:06:21.214Z,100779.86
2019-01-21T05:11:24.494Z,100783.27
2019-01-21T05:16:14.744Z,100782.89
2019-01-21T05:21:26.658Z,100782.09
2019-01-21T05:26:16.455Z,100782.43
2019-01-21T05:31:17.251Z,100793.60
2019-01-21T05:36:24.578Z,100799.69
2019-01-21T05:41:42.340Z,100797.13
2019-01-21T05:46:46.590Z,100801.38
2019-01-21T05:52:10.613Z,100804.38
2019-01-21T05:57:47.508Z,100799.22
2019-01-21T06:03:21.590Z,100796.33
2019-01-21T06:08:20.092Z,100801.84
2019-01-21T06:13:18.541Z,100808.38
2019-01-21T06:18:32.668Z,100805.88
2019-01-21T06:23:42.196Z,100809.66
2019-01-21T06:28:59.867Z,100811.79
2019-01-21T06:33:51.368Z,100816.93
2019-01-21T06:38:46.897Z,100815.66
2019-01-21T06:44:18.888Z,100815.25
2019-01-21T06:49:20.185Z,100821.23
2019-01-21T06:54:11.115Z,100821.67
2019-01-21T06:59:08.486Z,100831.52
2019-01-21T07:04:08.423Z,100824.11
2019-01-21T07:09:23.152Z,100813.84
2019-01-21T07:14:26.771Z,100820.27
2019-01-21T07:19:15.969Z,100823.55
2019-01-21T07:24:40.946Z,100821.45
2019-01-21T07:29:52.687Z,100824.80
2019-01-21T07:34:58.200Z,100837.27
2019-01-21T07:39:52.272Z,100841.69
2019-01-21T07:44:47.121Z,100842.08
2019-01-21T07:50:04.870Z,100846.84
2019-01-21T07:55:09.605Z,100836.58
2019-01-21T08:00:19.278Z,100833.56
2019-01-21T08:05:27.226Z,100843.42
2019-01-21T08:10:33.654Z,100840.70
2019-01-21T08:15:43.944Z,100843.05
2019-01-21T08:20:31.514Z,100843.83
2019-01-21T08:25:37.257Z,100849.44
2019-01-21T08:30:15.616Z,100853.94
2019-01-21T08:35:08.251Z,100849.95
2019-01-21T08:40:16.862Z,100853.27
2019-01-21T08:45:34.860Z,100857.49
2019-01-21T08:50:30.458Z,100857.84
2019-01-21T08:55:40.002Z,100847.33
2019-01-21T09:00:51.922Z,100851.86
2019-01-21T09:06:05.200Z,100857.67
2019-01-21T09:11:06.461Z,100859.66
2019-01-21T09:16:21.102Z,100859.95
2019-01-21T09:21:00.281Z,100864.31
2019-01-21T09:25:55.875Z,100863.50
2019-01-21T09:30:27.563Z,100870.81
2019-01-21T09:35:15.813Z,100879.23
2019-01-21T09:40:05.311Z,100881.34
2019-01-21T09:44:29.261Z,100874.72
2019-01-21T09:48:33.660Z,100872.06
2019-01-21T09:52:41.529Z,100878.03
2019-01-21T09:56:50.613Z,100882.89
2019-01-21T10:00:59.316Z,100881.99
2019-01-21T10:05:14.663Z,100876.32
2019-01-21T10:10:02.783Z,100876.64
2019-01-21T10:15:08.213Z,100872.02
2019-01-21T10:19:56.716Z,100862.91
2019-01-21T10:25:20.562Z,100864.97
2019-01-21T10:30:20.525Z,100859.27
2019-01-21T10:35:11.424Z,100846.67
2019-01-21T10:40:19.440Z,100833.91
2019-01-21T10:45:27.992Z,100821.31
2019-01-21T10:50:25.283Z,100826.70
2019-01-21T10:55:48.355Z,100815.98
2019-01-21T11:01:14.403Z,100802.80
2019-01-21T11:06:07.068Z,100793.25
2019-01-21T11:10:50.300Z,100791.47
2019-01-21T11:15:44.520Z,100787.62
2019-01-21T11:20:32.295Z,100790.02
2019-01-21T11:25:41.450Z,100797.47
2019-01-21T11:30:52.290Z,100790.98
2019-01-21T11:35:45.027Z,100783.97
2019-01-21T11:41:17.716Z,100784.69
2019-01-21T11:46:08.042Z,100768.90
2019-01-21T11:50:52.719Z,100762.66
2019-01-21T11:56:05.790Z,100768.22
2019-01-21T12:00:40.593Z,100762.45
2019-01-21T12:05:36.757Z,100759.51
2019-01-21T12:10:46.378Z,100751.51
2019-01-21T12:15:29.049Z,100743.55
2019-01-21T12:20:17.058Z,100742.19
2019-01-21T12:24:46.712Z,100732.91
2019-01-21T12:29:34.923Z,100726.20
2019-01-21T12:34:27.142Z,100712.17
2019-01-21T12:39:11.998Z,100703.80
2019-01-21T12:44:09.552Z,100707.34
2019-01-21T12:49:22.644Z,100702.29
2019-01-21T12:54:19.726Z,100696.61
2019-01-21T12:59:07.207Z,100691.73
2019-01-21T13:04:04.275Z,100690.52
2019-01-21T13:08:51.437Z,100679.23
2019-01-21T13:14:11.893Z,100670.78
2019-01-21T13:19:06.983Z,100668.05
2019-01-21T13:23:56.331Z,100655.34
2019-01-21T13:29:00.872Z,100655.66
2019-01-21T13:33:48.692Z,100649.47
2019-01-21T13:39:01.052Z,100637.08
2019-01-21T13:43:43.667Z,100633.02
2019-01-21T13:48:22.267Z,100628.88
2019-01-21T13:53:24.039Z,100616.37
2019-01-21T13:58:26.573Z,100612.34
2019-01-21T14:03:14.375Z,100631.28
2019-01-21T14:08:23.772Z,100624.05
2019-01-21T14:13:26.286Z,100617.28
2019-01-21T14:18:11.125Z,100617.16
2019-01-21T14:22:55.123Z,100614.27
2019-01-21T14:28:14.854Z,100619.53
2019-01-21T14:33:19.689Z,100609.67
2019-01-21T14:37:53.894Z,100612.80
2019-01-21T14:43:01.129Z,100606.39
2019-01-21T14:47:59.412Z,100602.87
2019-01-21T14:53:22.335Z,100586.56
2019-01-21T14:58:30.940Z,100588.95
2019-01-21T15:03:22.982Z,100593.06
2019-01-21T15:07:57.280Z,100602.84
2019-01-21T15:13:07.779Z,100607.44
2019-01-21T15:17:50.021Z,100606.61
2019-01-21T15:23:07.277Z,100602.11
2019-01-21T15:28:09.050Z,100597.33
2019-01-21T15:32:58.532Z,100593.77
2019-01-21T15:38:17.968Z,100591.65
2019-01-21T15:43:27.023Z,100590.85
2019-01-21T15:48:28.343Z,100583.61
2019-01-21T15:53:22.527Z,100583.31
2019-01-21T15:58:23.106Z,100586.08
2019-01-21T16:03:27.392Z,100587.45
2019-01-21T16:08:14.004Z,100583.25
2019-01-21T16:13:31.322Z,100580.56
2019-01-21T16:18:08.574Z,100580.31
2019-01-21T16:23:17.239Z,100588.13
2019-01-21T16:28:18.025Z,100595.48
2019-01-21T16:33:19.791Z,100594.80
2019-01-21T16:38:20.596Z,100592.11
2019-01-21T16:42:25.584Z,100580.81
2019-01-21T16:46:44.174Z,100587.03
2019-01-21T16:50:56.962Z,100587.20
2019-01-21T16:55:09.788Z,100586.93
2019-01-21T16:59:17.103Z,100590.55
2019-01-21T17:03:27.173Z,100584.56
2019-01-21T17:07:35.944Z,100582.84
2019-01-21T17:11:43.187Z,100589.85
2019-01-21T17:15:50.620Z,100598.34
2019-01-21T17:19:59.081Z,100606.51
2019-01-21T17:24:10.362Z,100605.52
2019-01-21T17:28:17.498Z,100603.47
2019-01-21T17:32:26.189Z,100602.29
2019-01-21T17:36:33.284Z,100597.59
2019-01-21T17:40:40.836Z,100587.49
2019-01-21T17:44:47.879Z,100585.44
2019-01-21T17:48:57.227Z,100572.63
2019-01-21T17:53:04.406Z,100569.81
2019-01-21T17:57:12.089Z,100566.14
2019-01-21T18:01:20.301Z,100570.28
2019-01-21T18:05:29.986Z,100556.09
2019-01-21T18:09:38.421Z,100551.19
2019-01-21T18:13:45.705Z,100554.38
2019-01-21T18:17:52.922Z,100555.33
2019-01-21T18:22:01.237Z,100557.99
2019-01-21T18:26:09.770Z,100556.42
2019-01-21T18:30:24.323Z,100534.54
2019-01-21T18:34:31.958Z,100540.31
2019-01-21T18:38:39.090Z,100541.92
2019-01-21T18:42:46.983Z,100537.17
2019-01-21T18:46:54.195Z,100533.03
2019-01-21T18:51:03.306Z,100529.20
2019-01-21T18:55:11.165Z,100542.44
2019-01-21T18:59:18.215Z,100539.23
2019-01-21T19:03:29.444Z,100542.64
2019-01-21T19:07:36.709Z,100558.67
2019-01-21T19:11:43.936Z,100559.73
2019-01-21T19:15:54.110Z,100562.58
2019-01-21T19:20:01.214Z,100567.72
2019-01-21T19:24:08.610Z,100571.45
2019-01-21T19:28:15.865Z,100570.03
2019-01-21T19:32:22.875Z,100574.40
2019-01-21T19:36:30.011Z,100577.22
2019-01-21T19:40:37.386Z,100569.64
2019-01-21T19:44:44.635Z,100562.92
2019-01-21T19:48:51.861Z,100556.08
2019-01-21T19:52:59.066Z,100567.25
2019-01-21T19:57:06.409Z,100571.23
2019-01-21T20:01:14.131Z,100567.34
2019-01-21T20:05:21.537Z,100564.03
2019-01-21T20:09:29.617Z,100549.31
2019-01-21T20:13:36.694Z,100551.66
2019-01-21T20:17:43.732Z,100540.25
2019-01-21T20:21:51.793Z,100550.39
2019-01-21T20:25:59.295Z,100538.95
2019-01-21T20:30:08.797Z,100532.15
2019-01-21T20:34:15.701Z,100534.69
2019-01-21T20:38:24.307Z,100526.25
2019-01-21T20:42:31.367Z,100525.91
2019-01-21T20:46:38.569Z,100518.68
2019-01-21T20:50:45.946Z,100509.71
2019-01-21T20:54:53.401Z,100518.81
2019-01-21T20:59:01.304Z,100511.87
2019-01-21T21:03:08.811Z,100503.92
2019-01-21T21:07:16.201Z,100496.00
2019-01-21T21:11:23.914Z,100505.83
2019-01-21T21:15:33.951Z,100509.80
2019-01-21T21:19:41.242Z,100510.23
2019-01-21T21:23:48.452Z,100512.53
2019-01-21T21:27:55.359Z,100514.64
2019-01-21T21:32:02.607Z,100507.44
2019-01-21T21:36:09.754Z,100508.52
2019-01-21T21:40:20.494Z,100505.30
2019-01-21T21:44:30.384Z,100506.69
2019-01-21T21:48:37.479Z,100487.71
2019-01-21T21:52:52.855Z,100502.28
2019-01-21T21:57:04.621Z,100492.33
2019-01-21T22:01:12.010Z,100498.97
2019-01-21T22:05:22.334Z,100491.45
2019-01-21T22:09:29.610Z,100492.59
2019-01-21T22:13:37.023Z,100486.02
2019-01-21T22:17:45.791Z,100486.02
2019-01-21T22:21:54.103Z,100479.80
2019-01-21T22:26:02.388Z,100479.98
2019-01-21T22:30:16.425Z,100483.27
2019-01-21T22:34:23.862Z,100475.77
2019-01-21T22:38:31.476Z,100483.04
2019-01-21T22:42:41.335Z,100474.91
2019-01-21T22:46:49.033Z,100475.06
2019-01-21T22:50:56.078Z,100476.88
2019-01-21T22:55:03.322Z,100474.77
2019-01-21T22:59:10.777Z,100477.73
2019-01-21T23:03:19.073Z,100480.61
2019-01-21T23:07:26.718Z,100476.48
2019-01-21T23:11:35.327Z,100474.73
2019-01-21T23:15:42.863Z,100472.75
2019-01-21T23:19:50.508Z,100465.28
2019-01-21T23:23:58.175Z,100464.97
2019-01-21T23:28:06.769Z,100454.77
2019-01-21T23:32:14.201Z,100457.48
2019-01-21T23:36:21.477Z,100460.78
2019-01-21T23:40:28.691Z,100454.34
2019-01-21T23:44:36.964Z,100455.13
2019-01-21T23:48:44.133Z,100450.77
2019-01-21T23:52:55.951Z,100458.09
2019-01-21T23:57:03.295Z,100444.55
